createdAt,value
2022-08-26T00:01:47.792Z,19.40
2022-08-26T00:06:50.230Z,19.40
2022-08-26T00:11:55.548Z,19.30
2022-08-26T00:17:08.656Z,19.30
2022-08-26T00:22:11.318Z,19.20
2022-08-26T00:27:15.014Z,19.10
2022-08-26T00:32:17.896Z,19.00
2022-08-26T00:37:20.083Z,19.10
2022-08-26T00:42:23.694Z,19.20
2022-08-26T00:47:31.347Z,19.00
2022-08-26T00:52:45.698Z,18.90
2022-08-26T00:57:55.004Z,18.90
2022-08-26T01:02:58.509Z,18.80
2022-08-26T01:08:01.094Z,18.80
2022-08-26T01:13:11.239Z,18.80
2022-08-26T01:18:15.703Z,18.80
2022-08-26T01:23:19.364Z,18.70
2022-08-26T01:28:29.592Z,18.60
2022-08-26T01:33:42.026Z,18.60
2022-08-26T01:38:46.312Z,18.60
2022-08-26T01:43:51.980Z,18.60
2022-08-26T01:49:08.506Z,18.70
2022-08-26T01:54:15.124Z,18.70
2022-08-26T01:59:20.232Z,18.60
2022-08-26T02:04:27.207Z,18.50
2022-08-26T02:09:30.919Z,18.60
2022-08-26T02:14:43.762Z,18.60
2022-08-26T02:19:49.958Z,18.60
2022-08-26T02:24:55.925Z,18.60
2022-08-26T02:30:01.526Z,18.60
2022-08-26T02:35:03.628Z,18.60
2022-08-26T02:40:09.213Z,18.60
2022-08-26T02:45:16.356Z,18.50
2022-08-26T02:50:25.922Z,18.50
2022-08-26T02:55:29.386Z,18.50
2022-08-26T03:00:32.048Z,18.50
2022-08-26T03:05:34.851Z,18.30
2022-08-26T03:10:38.399Z,18.30
2022-08-26T03:15:40.869Z,18.20
2022-08-26T03:20:42.936Z,18.20
2022-08-26T03:25:50.238Z,18.20
2022-08-26T03:30:52.944Z,18.20
2022-08-26T03:35:55.907Z,18.00
2022-08-26T03:41:00.726Z,17.90
2022-08-26T03:46:06.039Z,17.80
2022-08-26T03:51:14.605Z,17.70
2022-08-26T03:56:25.333Z,17.80
2022-08-26T04:01:29.280Z,17.60
2022-08-26T04:06:35.383Z,17.60
2022-08-26T04:11:40.477Z,17.60
2022-08-26T04:16:43.897Z,17.50
2022-08-26T04:21:47.395Z,17.80
2022-08-26T04:26:52.025Z,17.80
2022-08-26T04:31:56.113Z,17.80
2022-08-26T04:36:58.775Z,17.90
2022-08-26T04:42:02.574Z,18.00
2022-08-26T04:47:05.065Z,18.00
2022-08-26T04:52:07.280Z,17.90
2022-08-26T04:57:13.395Z,18.10
2022-08-26T05:02:16.373Z,18.40
2022-08-26T05:07:18.508Z,18.60
2022-08-26T05:12:23.387Z,18.70
2022-08-26T05:17:27.281Z,19.00
2022-08-26T05:22:29.451Z,19.60
2022-08-26T05:27:32.986Z,20.20
2022-08-26T05:32:35.090Z,20.60
2022-08-26T05:37:39.195Z,20.80
2022-08-26T05:42:42.858Z,21.00
2022-08-26T05:47:48.189Z,21.20
2022-08-26T05:52:53.137Z,20.90
2022-08-26T05:57:57.378Z,20.80
2022-08-26T06:03:00.149Z,20.90
2022-08-26T06:08:14.555Z,21.00
2022-08-26T06:13:19.476Z,21.10
2022-08-26T06:18:24.036Z,21.20
2022-08-26T06:23:47.486Z,21.40
2022-08-26T06:28:55.500Z,21.70
2022-08-26T06:33:58.505Z,21.80
2022-08-26T06:39:03.473Z,22.00
2022-08-26T06:44:08.638Z,22.20
2022-08-26T06:49:11.156Z,22.30
2022-08-26T06:54:13.433Z,22.40
2022-08-26T06:59:17.276Z,22.60
2022-08-26T07:04:24.665Z,22.70
2022-08-26T07:09:30.446Z,22.90
2022-08-26T07:14:35.677Z,23.00
2022-08-26T07:19:37.818Z,23.30
2022-08-26T07:24:42.327Z,23.40
2022-08-26T07:29:46.221Z,23.50
2022-08-26T07:34:48.539Z,23.60
2022-08-26T07:39:51.383Z,23.80
2022-08-26T07:44:55.700Z,23.70
2022-08-26T07:49:58.591Z,23.80
2022-08-26T07:55:04.431Z,23.90
2022-08-26T08:00:11.591Z,23.90
2022-08-26T08:05:16.688Z,24.10
2022-08-26T08:10:22.543Z,24.30
2022-08-26T08:15:35.505Z,24.40
2022-08-26T08:20:37.989Z,24.50
2022-08-26T08:25:40.072Z,24.80
2022-08-26T08:30:43.786Z,25.00
2022-08-26T08:35:46.755Z,25.20
2022-08-26T08:40:49.211Z,25.30
2022-08-26T08:45:58.991Z,25.40
2022-08-26T08:51:09.363Z,25.50
2022-08-26T08:56:20.629Z,25.70
2022-08-26T09:01:45.007Z,25.80
2022-08-26T09:06:49.978Z,26.00
2022-08-26T09:11:52.760Z,26.20
2022-08-26T09:17:00.035Z,26.30
2022-08-26T09:22:09.404Z,26.40
2022-08-26T09:27:14.409Z,26.60
2022-08-26T09:32:22.121Z,26.80
2022-08-26T09:37:42.915Z,26.90
2022-08-26T09:42:45.751Z,27.00
2022-08-26T09:47:57.258Z,27.30
2022-08-26T09:53:17.450Z,27.70
2022-08-26T09:58:35.552Z,28.10
2022-08-26T10:03:41.022Z,28.50
2022-08-26T10:08:48.008Z,28.50
2022-08-26T10:13:56.873Z,28.80
2022-08-26T10:19:03.239Z,29.40
2022-08-26T10:24:11.648Z,29.90
2022-08-26T10:29:19.876Z,30.20
2022-08-26T10:34:24.220Z,30.40
2022-08-26T10:39:33.400Z,30.40
2022-08-26T10:44:38.574Z,30.10
2022-08-26T10:49:48.244Z,29.30
2022-08-26T10:55:00.757Z,29.40
2022-08-26T11:00:27.437Z,29.60
2022-08-26T11:05:29.791Z,29.50
2022-08-26T11:11:08.384Z,29.70
2022-08-26T11:16:10.509Z,29.70
2022-08-26T11:21:46.061Z,29.40
2022-08-26T11:26:55.941Z,29.30
2022-08-26T11:31:59.110Z,29.20
2022-08-26T11:37:05.115Z,29.40
2022-08-26T11:42:23.376Z,30.00
2022-08-26T11:47:30.221Z,30.60
2022-08-26T11:52:32.433Z,31.00
2022-08-26T11:57:41.757Z,31.40
2022-08-26T12:02:43.923Z,31.80
2022-08-26T12:07:51.082Z,32.60
2022-08-26T12:12:59.101Z,32.70
2022-08-26T12:18:28.907Z,32.70
2022-08-26T12:23:41.858Z,33.20
2022-08-26T12:28:49.627Z,33.20
2022-08-26T12:33:52.566Z,33.20
2022-08-26T12:38:58.436Z,33.50
2022-08-26T12:44:02.162Z,34.00
2022-08-26T12:49:04.408Z,34.40
2022-08-26T12:54:07.276Z,34.80
2022-08-26T12:59:25.067Z,35.50
2022-08-26T13:04:38.629Z,35.50
2022-08-26T13:09:41.093Z,35.70
2022-08-26T13:14:46.588Z,35.10
2022-08-26T13:19:48.844Z,36.10
2022-08-26T13:24:53.589Z,37.00
2022-08-26T13:29:59.152Z,36.70
2022-08-26T13:35:05.570Z,37.40
2022-08-26T13:40:09.011Z,38.30
2022-08-26T13:45:17.603Z,37.40
2022-08-26T13:50:19.757Z,36.20
2022-08-26T13:55:22.057Z,35.40
2022-08-26T14:00:25.605Z,34.70
2022-08-26T14:05:27.983Z,35.80
2022-08-26T14:10:30.983Z,36.40
2022-08-26T14:15:36.666Z,35.60
2022-08-26T14:20:39.655Z,35.40
2022-08-26T14:25:41.939Z,36.70
2022-08-26T14:30:47.820Z,38.10
2022-08-26T14:35:49.990Z,39.20
2022-08-26T14:40:52.449Z,39.70
2022-08-26T14:45:56.154Z,40.40
2022-08-26T14:50:58.324Z,40.90
2022-08-26T14:56:00.627Z,40.00
2022-08-26T15:01:05.917Z,38.70
2022-08-26T15:06:10.716Z,37.60
2022-08-26T15:11:18.892Z,37.20
2022-08-26T15:16:29.748Z,36.50
2022-08-26T15:21:36.159Z,35.70
2022-08-26T15:26:43.485Z,35.20
2022-08-26T15:31:51.000Z,34.80
2022-08-26T15:36:59.745Z,35.30
2022-08-26T15:42:03.508Z,35.80
2022-08-26T15:47:11.907Z,36.00
2022-08-26T15:52:16.035Z,35.90
2022-08-26T15:57:21.226Z,35.50
2022-08-26T16:02:32.191Z,34.90
2022-08-26T16:07:35.403Z,34.50
2022-08-26T16:12:40.631Z,34.40
2022-08-26T16:17:49.944Z,34.20
2022-08-26T16:22:53.774Z,34.20
2022-08-26T16:27:58.792Z,33.80
2022-08-26T16:33:07.732Z,33.40
2022-08-26T16:38:17.858Z,33.00
2022-08-26T16:43:23.241Z,32.60
2022-08-26T16:48:35.987Z,32.20
2022-08-26T16:53:39.056Z,31.80
2022-08-26T16:58:46.185Z,31.50
2022-08-26T17:03:55.105Z,31.30
2022-08-26T17:09:08.841Z,31.40
2022-08-26T17:14:16.514Z,31.70
2022-08-26T17:19:26.138Z,31.90
2022-08-26T17:24:33.830Z,31.90
2022-08-26T17:29:42.629Z,31.90
2022-08-26T17:34:50.754Z,31.60
2022-08-26T17:39:58.763Z,31.20
2022-08-26T17:45:12.361Z,30.90
2022-08-26T17:50:21.589Z,30.60
2022-08-26T17:55:26.285Z,30.10
2022-08-26T18:00:37.786Z,29.60
2022-08-26T18:05:56.827Z,29.10
2022-08-26T18:11:02.664Z,28.70
2022-08-26T18:16:15.727Z,28.40
2022-08-26T18:21:22.431Z,28.20
2022-08-26T18:26:32.669Z,27.90
2022-08-26T18:31:37.879Z,27.60
2022-08-26T18:37:03.050Z,27.40
2022-08-26T18:42:09.517Z,27.30
2022-08-26T18:47:12.458Z,27.00
2022-08-26T18:52:18.946Z,26.90
2022-08-26T18:57:21.797Z,26.60
2022-08-26T19:02:24.693Z,26.30
2022-08-26T19:07:31.335Z,26.20
2022-08-26T19:12:33.663Z,26.00
2022-08-26T19:17:36.395Z,26.00
2022-08-26T19:22:41.903Z,25.80
2022-08-26T19:27:47.698Z,25.70
2022-08-26T19:32:50.983Z,25.60
2022-08-26T19:37:54.794Z,25.00
2022-08-26T19:43:04.606Z,24.90
2022-08-26T19:48:08.743Z,24.80
2022-08-26T19:53:17.807Z,24.80
2022-08-26T19:58:20.434Z,24.80
2022-08-26T20:03:27.461Z,24.60
2022-08-26T20:08:37.289Z,24.60
2022-08-26T20:13:49.240Z,24.70
2022-08-26T20:19:20.312Z,24.60
2022-08-26T20:24:33.121Z,24.60
2022-08-26T20:29:38.374Z,24.50
2022-08-26T20:34:44.459Z,24.50
2022-08-26T20:39:52.059Z,24.40
2022-08-26T20:45:06.990Z,24.40
2022-08-26T20:50:15.785Z,24.20
2022-08-26T20:55:23.208Z,24.20
2022-08-26T21:00:30.506Z,24.20
2022-08-26T21:05:38.780Z,24.10
2022-08-26T21:10:46.715Z,24.00
2022-08-26T21:15:52.225Z,23.90
2022-08-26T21:21:00.720Z,23.80
2022-08-26T21:26:09.486Z,23.70
2022-08-26T21:31:17.432Z,23.60
2022-08-26T21:36:24.535Z,23.50
2022-08-26T21:41:32.798Z,23.30
2022-08-26T21:46:39.638Z,23.30
2022-08-26T21:51:48.324Z,23.10
2022-08-26T21:56:59.285Z,23.00
2022-08-26T22:02:02.851Z,22.80
2022-08-26T22:07:08.864Z,22.70
2022-08-26T22:12:18.864Z,22.50
2022-08-26T22:17:30.019Z,22.30
2022-08-26T22:22:38.276Z,22.10
2022-08-26T22:27:42.799Z,22.00
2022-08-26T22:32:47.338Z,21.80
2022-08-26T22:37:50.350Z,21.70
2022-08-26T22:43:05.399Z,21.70
2022-08-26T22:48:11.040Z,21.50
2022-08-26T22:53:14.802Z,21.50
2022-08-26T22:58:34.394Z,21.40
2022-08-26T23:03:39.922Z,21.40
2022-08-26T23:08:49.792Z,21.40
2022-08-26T23:13:56.647Z,21.40
2022-08-26T23:19:01.712Z,21.40
2022-08-26T23:24:07.938Z,21.40
2022-08-26T23:29:18.020Z,21.20
2022-08-26T23:34:44.127Z,21.20
2022-08-26T23:39:56.007Z,21.20
2022-08-26T23:45:15.277Z,21.20
2022-08-26T23:50:21.210Z,21.30
2022-08-26T23:55:24.790Z,21.30
